createdAt,value
2023-03-05T00:00:48.540Z,93214.38
2023-03-05T00:01:45.155Z,93215.94
2023-03-05T00:02:42.237Z,93216.75
2023-03-05T00:03:39.128Z,93216.38
2023-03-05T00:04:36.105Z,93199.75
2023-03-05T00:05:34.877Z,93223.25
2023-03-05T00:06:32.460Z,93162.94
2023-03-05T00:07:29.094Z,93219.75
2023-03-05T00:08:25.909Z,93198.28
2023-03-05T00:09:22.685Z,93216.88
2023-03-05T00:10:19.421Z,93219.03
2023-03-05T00:11:16.732Z,93216.75
2023-03-05T00:12:13.305Z,93208.75
2023-03-05T00:13:12.553Z,93216.69
2023-03-05T00:14:10.386Z,93213.84
2023-03-05T00:15:07.901Z,93215.22
2023-03-05T00:16:06.638Z,93208.09
2023-03-05T00:17:03.386Z,93197.44
2023-03-05T00:17:59.967Z,93212.78
2023-03-05T00:18:58.649Z,93206.91
2023-03-05T00:19:57.069Z,93206.72
2023-03-05T00:20:53.801Z,93205.25
2023-03-05T00:21:50.419Z,93205.47
2023-03-05T00:22:47.005Z,93189.41
2023-03-05T00:23:43.708Z,93205.56
2023-03-05T00:24:40.274Z,93203.09
2023-03-05T00:25:36.970Z,93175.56
2023-03-05T00:26:36.939Z,93176.66
2023-03-05T00:27:33.496Z,93194.00
2023-03-05T00:28:30.154Z,93202.22
2023-03-05T00:29:29.598Z,93193.53
2023-03-05T00:30:28.029Z,93196.44
2023-03-05T00:31:30.519Z,93194.72
2023-03-05T00:32:27.221Z,93192.25
2023-03-05T00:33:23.886Z,93186.53
2023-03-05T00:34:21.153Z,93156.53
2023-03-05T00:35:17.891Z,93172.94
2023-03-05T00:36:14.543Z,93173.06
2023-03-05T00:37:12.690Z,93187.72
2023-03-05T00:38:09.528Z,93186.75
2023-03-05T00:39:06.121Z,93181.66
2023-03-05T00:40:04.071Z,93185.56
2023-03-05T00:41:00.666Z,93183.31
2023-03-05T00:41:57.376Z,93180.31
2023-03-05T00:42:53.916Z,93185.09
2023-03-05T00:43:50.629Z,93181.16
2023-03-05T00:44:49.532Z,93186.63
2023-03-05T00:45:46.104Z,93184.31
2023-03-05T00:46:42.759Z,93174.72
2023-03-05T00:47:39.754Z,93183.81
2023-03-05T00:48:36.567Z,93178.88
2023-03-05T00:49:33.160Z,93182.78
2023-03-05T00:50:32.098Z,93181.34
2023-03-05T00:51:29.053Z,93182.66
2023-03-05T00:52:25.876Z,93147.72
2023-03-05T00:53:23.328Z,93185.53
2023-03-05T00:54:21.073Z,93179.00
2023-03-05T00:55:17.797Z,93180.28
2023-03-05T00:56:14.538Z,93151.63
2023-03-05T00:57:11.123Z,93184.00
2023-03-05T00:58:07.718Z,93157.50
2023-03-05T00:59:04.309Z,93174.53
2023-03-05T01:00:00.863Z,93174.41
2023-03-05T01:00:59.423Z,93170.19
2023-03-05T01:01:56.014Z,93168.75
2023-03-05T01:02:52.653Z,93168.50
2023-03-05T01:03:49.206Z,93181.03
2023-03-05T01:04:47.356Z,93169.41
2023-03-05T01:05:44.384Z,93093.59
2023-03-05T01:06:44.835Z,93165.22
2023-03-05T01:07:41.750Z,93163.84
2023-03-05T01:08:38.743Z,93159.06
2023-03-05T01:09:35.352Z,93163.56
2023-03-05T01:10:32.295Z,93159.22
2023-03-05T01:11:28.927Z,93162.94
2023-03-05T01:12:25.594Z,93160.72
2023-03-05T01:13:22.327Z,93128.41
2023-03-05T01:14:19.944Z,93164.56
2023-03-05T01:15:16.563Z,93167.84
2023-03-05T01:16:13.495Z,93167.72
2023-03-05T01:17:10.154Z,93162.28
2023-03-05T01:18:06.837Z,93175.13
2023-03-05T01:19:03.692Z,93138.19
2023-03-05T01:20:00.390Z,93169.59
2023-03-05T01:20:57.066Z,93167.91
2023-03-05T01:21:55.168Z,93164.25
2023-03-05T01:22:51.796Z,93066.50
2023-03-05T01:23:48.395Z,93154.06
2023-03-05T01:24:45.103Z,93125.75
2023-03-05T01:25:41.807Z,93161.69
2023-03-05T01:26:38.444Z,93121.78
2023-03-05T01:27:35.184Z,93150.81
2023-03-05T01:28:32.707Z,93157.47
2023-03-05T01:29:29.339Z,93152.78
2023-03-05T01:30:26.024Z,93160.03
2023-03-05T01:31:22.922Z,93117.09
2023-03-05T01:32:19.624Z,93153.47
2023-03-05T01:33:16.236Z,93153.94
2023-03-05T01:34:13.821Z,93156.81
2023-03-05T01:35:15.284Z,93151.44
2023-03-05T01:36:16.756Z,93157.09
2023-03-05T01:37:13.428Z,93149.69
2023-03-05T01:38:10.050Z,93154.56
2023-03-05T01:39:06.602Z,93160.66
2023-03-05T01:40:03.565Z,93140.38
2023-03-05T01:41:00.111Z,93157.47
2023-03-05T01:41:56.699Z,93147.09
2023-03-05T01:43:11.867Z,93144.66
2023-03-05T01:44:36.279Z,93140.09
2023-03-05T01:45:33.012Z,93144.88
2023-03-05T01:46:37.114Z,93151.28
2023-03-05T01:47:33.756Z,93098.25
2023-03-05T01:48:30.610Z,93144.81
2023-03-05T01:49:28.796Z,93150.63
2023-03-05T01:50:27.530Z,93144.47
2023-03-05T01:51:27.058Z,93068.97
2023-03-05T01:52:26.590Z,93143.56
2023-03-05T01:53:23.180Z,93134.72
2023-03-05T01:54:21.936Z,93085.56
2023-03-05T01:55:22.558Z,93128.59
2023-03-05T01:56:19.322Z,93136.94
2023-03-05T01:57:23.085Z,93133.03
2023-03-05T01:58:19.646Z,93141.38
2023-03-05T01:59:17.760Z,93143.69
2023-03-05T02:00:19.117Z,93143.38
2023-03-05T02:01:17.106Z,93140.28
2023-03-05T02:02:14.232Z,93153.94
2023-03-05T02:03:13.239Z,93143.38
2023-03-05T02:04:14.642Z,93147.91
2023-03-05T02:05:16.154Z,93097.84
2023-03-05T02:06:13.602Z,93136.69
2023-03-05T02:07:11.621Z,93106.69
2023-03-05T02:08:10.975Z,93138.22
2023-03-05T02:09:07.675Z,93146.75
2023-03-05T02:10:32.459Z,93146.78
2023-03-05T02:11:29.419Z,93142.41
2023-03-05T02:12:26.083Z,93145.38
2023-03-05T02:13:25.362Z,93150.03
2023-03-05T02:14:25.980Z,93145.47
2023-03-05T02:15:23.066Z,93136.84
2023-03-05T02:16:19.705Z,93140.41
2023-03-05T02:17:16.633Z,93110.59
2023-03-05T02:18:13.996Z,93138.44
2023-03-05T02:19:12.962Z,93144.72
2023-03-05T02:20:16.051Z,93135.56
2023-03-05T02:21:12.694Z,93144.34
2023-03-05T02:22:14.887Z,93146.81
2023-03-05T02:23:11.579Z,93148.38
2023-03-05T02:24:14.268Z,93142.44
2023-03-05T02:25:15.832Z,93143.97
2023-03-05T02:26:12.441Z,93148.59
2023-03-05T02:27:09.838Z,93146.94
2023-03-05T02:28:13.288Z,93117.44
2023-03-05T02:29:12.974Z,93148.09
2023-03-05T02:30:10.343Z,93147.34
2023-03-05T02:31:13.578Z,93141.31
2023-03-05T02:32:11.074Z,93149.97
2023-03-05T02:33:08.187Z,93104.97
2023-03-05T02:34:05.201Z,93144.91
2023-03-05T02:35:01.864Z,93151.72
2023-03-05T02:35:58.517Z,93149.09
2023-03-05T02:36:55.641Z,93114.44
2023-03-05T02:37:52.389Z,93149.41
2023-03-05T02:38:49.354Z,93154.22
2023-03-05T02:39:45.999Z,93149.56
2023-03-05T02:40:43.384Z,93154.97
2023-03-05T02:41:40.070Z,93142.41
2023-03-05T02:42:36.963Z,93148.00
2023-03-05T02:43:33.609Z,93152.19
2023-03-05T02:44:30.327Z,93154.84
2023-03-05T02:45:27.245Z,93157.47
2023-03-05T02:46:23.949Z,93153.59
2023-03-05T02:47:20.704Z,93153.41
2023-03-05T02:48:17.340Z,93152.78
2023-03-05T02:49:14.083Z,93148.44
2023-03-05T02:50:12.251Z,93152.78
2023-03-05T02:51:09.486Z,93146.34
2023-03-05T02:52:06.372Z,93150.44
2023-03-05T02:53:03.122Z,93150.09
2023-03-05T02:53:59.669Z,93151.38
2023-03-05T02:54:56.232Z,93146.59
2023-03-05T02:55:52.974Z,93151.72
2023-03-05T02:56:50.440Z,93152.75
2023-03-05T02:57:47.040Z,93154.00
2023-03-05T02:58:43.706Z,93153.06
2023-03-05T02:59:40.257Z,93151.56
2023-03-05T03:00:36.858Z,93135.81
2023-03-05T03:01:33.524Z,93148.97
2023-03-05T03:02:30.141Z,93128.69
2023-03-05T03:03:26.802Z,93153.31
2023-03-05T03:04:23.415Z,93157.34
2023-03-05T03:05:20.073Z,93155.50
2023-03-05T03:06:16.682Z,93153.16
2023-03-05T03:07:14.096Z,93152.84
2023-03-05T03:08:11.446Z,93152.50
2023-03-05T03:09:08.104Z,93153.00
2023-03-05T03:10:05.918Z,93152.97
2023-03-05T03:11:07.987Z,93157.00
2023-03-05T03:12:05.918Z,93153.06
2023-03-05T03:13:02.764Z,93152.63
2023-03-05T03:14:00.293Z,93134.09
2023-03-05T03:14:56.844Z,93151.13
2023-03-05T03:16:12.778Z,93156.34
2023-03-05T03:17:11.839Z,93159.00
2023-03-05T03:18:08.485Z,93155.78
2023-03-05T03:19:05.632Z,93124.84
2023-03-05T03:20:07.659Z,93155.31
2023-03-05T03:21:05.199Z,93154.22
2023-03-05T03:22:01.840Z,93146.81
2023-03-05T03:22:58.438Z,93154.28
2023-03-05T03:23:55.079Z,93155.34
2023-03-05T03:24:51.706Z,93096.34
2023-03-05T03:25:48.391Z,93150.16
2023-03-05T03:26:44.998Z,93152.16
2023-03-05T03:27:41.753Z,93121.47
2023-03-05T03:28:38.425Z,93147.69
2023-03-05T03:29:35.372Z,93120.16
2023-03-05T03:30:32.071Z,93160.72
2023-03-05T03:31:28.699Z,93149.41
2023-03-05T03:32:25.417Z,93152.03
2023-03-05T03:33:22.453Z,93147.09
2023-03-05T03:34:20.090Z,93116.31
2023-03-05T03:35:16.685Z,93147.75
2023-03-05T03:36:13.624Z,93161.19
2023-03-05T03:37:10.728Z,93113.53
2023-03-05T03:38:07.358Z,93151.59
2023-03-05T03:39:05.994Z,93150.81
2023-03-05T03:40:05.650Z,93145.38
2023-03-05T03:41:02.279Z,93151.84
2023-03-05T03:41:58.943Z,93152.50
2023-03-05T03:42:55.615Z,93149.00
2023-03-05T03:43:52.171Z,93149.97
2023-03-05T03:44:49.583Z,93150.50
2023-03-05T03:45:46.260Z,93155.78
2023-03-05T03:46:44.657Z,93153.94
2023-03-05T03:47:41.408Z,93103.31
2023-03-05T03:48:38.214Z,93154.53
2023-03-05T03:49:34.897Z,93151.41
2023-03-05T03:50:31.473Z,93145.72
2023-03-05T03:51:28.092Z,93153.16
2023-03-05T03:52:24.769Z,93152.84
2023-03-05T03:53:21.379Z,93137.97
2023-03-05T03:54:18.917Z,93156.44
2023-03-05T03:55:15.564Z,93148.66
2023-03-05T03:56:12.194Z,93149.75
2023-03-05T03:57:09.475Z,93153.78
2023-03-05T03:58:06.345Z,93136.41
2023-03-05T03:59:03.424Z,93145.13
2023-03-05T04:00:00.863Z,93147.13
2023-03-05T04:00:57.586Z,93146.97
2023-03-05T04:01:54.151Z,93144.81
2023-03-05T04:02:50.828Z,93144.81
2023-03-05T04:03:47.644Z,93156.25
2023-03-05T04:04:44.322Z,93150.06
2023-03-05T04:05:41.056Z,93150.06
2023-03-05T04:06:37.749Z,93144.94
2023-03-05T04:07:34.350Z,93134.41
2023-03-05T04:08:30.936Z,93144.16
2023-03-05T04:09:27.664Z,93149.44
2023-03-05T04:10:25.828Z,93137.19
2023-03-05T04:11:22.455Z,93094.16
2023-03-05T04:12:19.156Z,93129.47
2023-03-05T04:13:15.722Z,93137.81
2023-03-05T04:14:12.412Z,93138.84
2023-03-05T04:15:10.730Z,93141.81
2023-03-05T04:16:07.683Z,93141.88
2023-03-05T04:17:04.377Z,93142.03
2023-03-05T04:18:01.023Z,93138.44
2023-03-05T04:18:57.625Z,93139.53
2023-03-05T04:19:54.305Z,93133.63
2023-03-05T04:20:50.980Z,93146.31
2023-03-05T04:21:47.668Z,93145.06
2023-03-05T04:22:44.306Z,93140.88
2023-03-05T04:23:41.189Z,93140.91
2023-03-05T04:24:38.753Z,93145.88
2023-03-05T04:25:35.296Z,93141.53
2023-03-05T04:26:31.847Z,93146.50
2023-03-05T04:27:28.420Z,93143.84
2023-03-05T04:28:25.088Z,93141.97
2023-03-05T04:29:22.364Z,93146.63
2023-03-05T04:30:19.122Z,93162.75
2023-03-05T04:31:15.869Z,93146.75
2023-03-05T04:32:12.535Z,93104.53
2023-03-05T04:33:09.108Z,93150.38
2023-03-05T04:34:05.735Z,93148.38
2023-03-05T04:35:02.433Z,93151.63
2023-03-05T04:35:59.355Z,93115.81
2023-03-05T04:36:55.980Z,93050.38
2023-03-05T04:37:52.866Z,93119.72
2023-03-05T04:38:49.433Z,93147.59
2023-03-05T04:39:46.010Z,93147.00
2023-03-05T04:40:42.696Z,93142.19
2023-03-05T04:41:39.265Z,93136.31
2023-03-05T04:42:35.902Z,93113.25
2023-03-05T04:43:32.518Z,93146.69
2023-03-05T04:44:29.158Z,93146.38
2023-03-05T04:45:25.773Z,93148.72
2023-03-05T04:46:22.448Z,93133.72
2023-03-05T04:47:19.659Z,93154.47
2023-03-05T04:48:17.042Z,93146.56
2023-03-05T04:49:13.629Z,93141.00
2023-03-05T04:50:11.352Z,93144.41
2023-03-05T04:51:08.060Z,93147.34
2023-03-05T04:52:04.777Z,93147.66
2023-03-05T04:53:01.655Z,93142.53
2023-03-05T04:53:58.512Z,93119.31
2023-03-05T04:54:55.145Z,93147.34
2023-03-05T04:55:55.649Z,93141.00
2023-03-05T04:56:52.406Z,93141.91
2023-03-05T04:57:49.610Z,93098.41
2023-03-05T04:58:46.226Z,93149.81
2023-03-05T04:59:42.840Z,93145.97
2023-03-05T05:00:39.390Z,93144.88
2023-03-05T05:01:36.069Z,93150.13
2023-03-05T05:02:33.521Z,93143.00
2023-03-05T05:03:30.268Z,93146.75
2023-03-05T05:04:26.905Z,93147.34
2023-03-05T05:05:26.712Z,93149.53
2023-03-05T05:06:23.326Z,93146.41
2023-03-05T05:07:20.075Z,93110.31
2023-03-05T05:08:16.636Z,93148.75
2023-03-05T05:09:13.348Z,93144.88
2023-03-05T05:10:12.002Z,93147.03
2023-03-05T05:11:08.774Z,93150.44
2023-03-05T05:12:05.638Z,93144.84
2023-03-05T05:13:02.264Z,93151.66
2023-03-05T05:13:58.931Z,93149.97
2023-03-05T05:14:55.690Z,93149.38
2023-03-05T05:15:52.589Z,93163.28
2023-03-05T05:16:49.272Z,93138.34
2023-03-05T05:17:46.378Z,93153.81
2023-03-05T05:18:42.953Z,93145.47
2023-03-05T05:19:39.712Z,93150.91
2023-03-05T05:20:36.316Z,93152.41
2023-03-05T05:21:32.888Z,93149.81
2023-03-05T05:22:29.543Z,93150.75
2023-03-05T05:23:26.358Z,93148.59
2023-03-05T05:24:22.988Z,93155.09
2023-03-05T05:25:19.568Z,93154.94
2023-03-05T05:26:16.218Z,93141.28
2023-03-05T05:27:12.768Z,93153.56
2023-03-05T05:28:11.170Z,93148.13
2023-03-05T05:29:07.815Z,93150.28
2023-03-05T05:30:05.157Z,93139.13
2023-03-05T05:31:07.072Z,93147.19
2023-03-05T05:32:03.691Z,93134.94
2023-03-05T05:33:00.408Z,93154.47
2023-03-05T05:33:57.021Z,93147.34
2023-03-05T05:34:58.169Z,93153.84
2023-03-05T05:35:54.808Z,93160.97
2023-03-05T05:36:52.224Z,93107.84
2023-03-05T05:37:48.833Z,93127.50
2023-03-05T05:38:46.038Z,93150.72
2023-03-05T05:39:42.590Z,93150.75
2023-03-05T05:40:40.042Z,93121.00
2023-03-05T05:41:36.597Z,93157.09
2023-03-05T05:42:33.212Z,93151.81
2023-03-05T05:43:29.766Z,93154.91
2023-03-05T05:44:26.475Z,93152.75
2023-03-05T05:45:23.150Z,93156.63
2023-03-05T05:46:20.990Z,93155.03
2023-03-05T05:47:18.347Z,93152.25
2023-03-05T05:48:14.986Z,93147.16
2023-03-05T05:49:11.726Z,93154.00
2023-03-05T05:50:09.032Z,93155.38
2023-03-05T05:51:20.368Z,93153.66
2023-03-05T05:52:17.102Z,93153.66
2023-03-05T05:53:13.666Z,93163.06
2023-03-05T05:54:13.478Z,93154.28
2023-03-05T05:55:10.627Z,93162.19
2023-03-05T05:56:09.899Z,93162.47
2023-03-05T05:57:06.635Z,93129.19
2023-03-05T05:58:03.243Z,93158.91
2023-03-05T05:58:59.945Z,93173.47
2023-03-05T05:59:56.779Z,93165.09
2023-03-05T06:00:53.408Z,93162.63
2023-03-05T06:01:50.134Z,93163.41
2023-03-05T06:02:46.932Z,93166.66
2023-03-05T06:03:43.704Z,93167.75
2023-03-05T06:04:40.435Z,93168.53
2023-03-05T06:05:37.003Z,93160.75
2023-03-05T06:06:35.039Z,93173.47
2023-03-05T06:07:31.833Z,93164.94
2023-03-05T06:08:28.370Z,93174.84
2023-03-05T06:09:24.999Z,93171.25
2023-03-05T06:10:21.608Z,93169.53
2023-03-05T06:11:19.592Z,93173.38
2023-03-05T06:12:16.521Z,93175.22
2023-03-05T06:13:13.139Z,93137.59
2023-03-05T06:14:12.354Z,93168.94
2023-03-05T06:15:09.891Z,93169.34
2023-03-05T06:16:10.892Z,93171.91
2023-03-05T06:17:07.582Z,93158.78
2023-03-05T06:18:04.198Z,93135.88
2023-03-05T06:19:04.442Z,93173.66
2023-03-05T06:20:01.336Z,93181.38
2023-03-05T06:21:00.061Z,93170.50
2023-03-05T06:21:56.705Z,93183.94
2023-03-05T06:22:53.290Z,93180.69
2023-03-05T06:23:51.281Z,93183.81
2023-03-05T06:24:47.878Z,93184.31
2023-03-05T06:25:44.525Z,93180.31
2023-03-05T06:26:41.527Z,93178.94
2023-03-05T06:27:38.839Z,93155.94
2023-03-05T06:28:35.623Z,93186.63
2023-03-05T06:29:32.422Z,93157.34
2023-03-05T06:30:29.062Z,93184.13
2023-03-05T06:31:27.631Z,93145.50
2023-03-05T06:32:24.283Z,93168.84
2023-03-05T06:33:20.967Z,93185.78
2023-03-05T06:34:17.624Z,93188.13
2023-03-05T06:35:14.254Z,93183.50
2023-03-05T06:36:16.169Z,93188.28
2023-03-05T06:37:12.806Z,93178.88
2023-03-05T06:38:12.072Z,93183.47
2023-03-05T06:39:08.770Z,93193.59
2023-03-05T06:40:05.830Z,93162.75
2023-03-05T06:41:09.327Z,93182.41
2023-03-05T06:42:06.087Z,93187.81
2023-03-05T06:43:02.666Z,93185.38
2023-03-05T06:44:02.339Z,93185.84
2023-03-05T06:44:59.022Z,93192.31
2023-03-05T06:46:07.070Z,93193.09
2023-03-05T06:47:05.662Z,93194.06
2023-03-05T06:48:02.284Z,93189.88
2023-03-05T06:49:01.186Z,93201.97
2023-03-05T06:49:57.814Z,93189.31
2023-03-05T06:50:54.458Z,93198.88
2023-03-05T06:51:51.091Z,93201.84
2023-03-05T06:52:50.000Z,93171.50
2023-03-05T06:53:49.374Z,93199.31
2023-03-05T06:54:46.215Z,93206.47
2023-03-05T06:55:42.785Z,93203.19
2023-03-05T06:56:41.106Z,93198.88
2023-03-05T06:57:37.679Z,93204.78
2023-03-05T06:58:34.268Z,93175.38
2023-03-05T06:59:30.808Z,93211.44
2023-03-05T07:00:29.791Z,93222.47
2023-03-05T07:01:26.458Z,93210.66
2023-03-05T07:02:23.157Z,93221.66
2023-03-05T07:03:19.790Z,93213.91
2023-03-05T07:04:17.163Z,93179.38
2023-03-05T07:05:13.897Z,93209.34
2023-03-05T07:06:13.500Z,93215.09
2023-03-05T07:07:10.112Z,93207.88
2023-03-05T07:08:07.069Z,93159.28
2023-03-05T07:09:05.114Z,93217.72
2023-03-05T07:10:01.906Z,93204.25
2023-03-05T07:10:59.151Z,93212.66
2023-03-05T07:11:55.799Z,93211.41
2023-03-05T07:12:52.399Z,93208.09
2023-03-05T07:13:49.689Z,93215.41
2023-03-05T07:14:46.303Z,93215.22
2023-03-05T07:15:44.016Z,93170.13
2023-03-05T07:16:40.645Z,93183.16
2023-03-05T07:17:37.307Z,93213.63
2023-03-05T07:18:34.179Z,93188.03
2023-03-05T07:19:30.769Z,93214.84
2023-03-05T07:20:27.355Z,93230.38
2023-03-05T07:21:27.004Z,93214.53
2023-03-05T07:22:23.579Z,93216.38
2023-03-05T07:23:20.156Z,93221.13
2023-03-05T07:24:16.883Z,93224.22
2023-03-05T07:25:13.961Z,93219.94
2023-03-05T07:26:10.809Z,93220.78
2023-03-05T07:27:07.482Z,93212.72
2023-03-05T07:28:06.473Z,93217.75
2023-03-05T07:29:03.818Z,93227.75
2023-03-05T07:30:00.519Z,93215.81
2023-03-05T07:30:59.321Z,93219.19
2023-03-05T07:31:56.174Z,93215.13
2023-03-05T07:32:52.749Z,93206.91
2023-03-05T07:33:50.366Z,93213.44
2023-03-05T07:34:46.962Z,93210.44
2023-03-05T07:35:43.596Z,93206.38
2023-03-05T07:36:40.607Z,93213.88
2023-03-05T07:37:37.246Z,93213.81
2023-03-05T07:38:33.858Z,93198.59
2023-03-05T07:39:30.402Z,93199.59
2023-03-05T07:40:26.999Z,93206.59
2023-03-05T07:41:23.846Z,93207.97
2023-03-05T07:42:20.594Z,93215.84
2023-03-05T07:43:17.461Z,93210.09
2023-03-05T07:44:14.138Z,93209.91
2023-03-05T07:45:11.068Z,93205.34
2023-03-05T07:46:09.949Z,93199.50
2023-03-05T07:47:06.625Z,93215.59
2023-03-05T07:48:03.338Z,93210.06
2023-03-05T07:49:00.571Z,93131.31
2023-03-05T07:49:57.190Z,93207.47
2023-03-05T07:51:05.453Z,93208.31
2023-03-05T07:52:02.050Z,93211.66
2023-03-05T07:52:58.892Z,93216.63
2023-03-05T07:53:57.610Z,93205.16
2023-03-05T07:54:54.194Z,93206.13
2023-03-05T07:55:50.801Z,93212.84
2023-03-05T07:56:47.410Z,93210.06
2023-03-05T07:57:44.078Z,93204.34
2023-03-05T07:58:40.736Z,93209.97
2023-03-05T07:59:38.296Z,93209.00
2023-03-05T08:00:34.980Z,93204.47
2023-03-05T08:01:33.021Z,93198.41
2023-03-05T08:02:29.793Z,93176.13
2023-03-05T08:03:26.529Z,93203.69
2023-03-05T08:04:23.279Z,93195.78
2023-03-05T08:05:19.869Z,93206.25
2023-03-05T08:06:16.846Z,93208.66
2023-03-05T08:07:16.813Z,93207.25
2023-03-05T08:08:13.451Z,93207.09
2023-03-05T08:09:10.484Z,93179.84
2023-03-05T08:10:07.965Z,93202.06
2023-03-05T08:11:06.818Z,93199.03
2023-03-05T08:12:03.573Z,93203.75
2023-03-05T08:13:00.251Z,93213.13
2023-03-05T08:13:59.402Z,93201.66
2023-03-05T08:14:55.979Z,93202.75
2023-03-05T08:15:52.562Z,93204.97
2023-03-05T08:16:52.602Z,93204.75
2023-03-05T08:17:52.115Z,93177.63
2023-03-05T08:18:48.836Z,93165.41
2023-03-05T08:19:45.390Z,93199.31
2023-03-05T08:20:41.933Z,93200.63
2023-03-05T08:21:38.663Z,93162.91
2023-03-05T08:22:35.527Z,93195.41
2023-03-05T08:23:34.494Z,93188.47
2023-03-05T08:24:31.142Z,93198.91
2023-03-05T08:25:28.372Z,93193.66
2023-03-05T08:26:27.805Z,93194.69
2023-03-05T08:27:24.608Z,93191.50
2023-03-05T08:28:21.297Z,93202.75
2023-03-05T08:29:17.903Z,93189.31
2023-03-05T08:30:18.558Z,93193.88
2023-03-05T08:31:17.184Z,93198.72
2023-03-05T08:32:13.874Z,93188.28
2023-03-05T08:33:12.105Z,93197.19
2023-03-05T08:34:08.679Z,93092.22
2023-03-05T08:35:06.846Z,93193.97
2023-03-05T08:36:04.046Z,93199.44
2023-03-05T08:37:00.638Z,93196.75
2023-03-05T08:37:57.404Z,93169.09
2023-03-05T08:38:54.063Z,93151.25
2023-03-05T08:39:50.827Z,93198.09
2023-03-05T08:40:48.181Z,93197.53
2023-03-05T08:41:44.895Z,93196.72
2023-03-05T08:42:41.415Z,93193.00
2023-03-05T08:43:38.020Z,93192.75
2023-03-05T08:44:34.604Z,93187.28
2023-03-05T08:45:31.352Z,93178.13
2023-03-05T08:46:28.071Z,93188.69
2023-03-05T08:47:26.704Z,93187.38
2023-03-05T08:48:23.527Z,93193.22
2023-03-05T08:49:20.142Z,93183.38
2023-03-05T08:50:17.958Z,93175.81
2023-03-05T08:51:18.402Z,93188.53
2023-03-05T08:52:15.126Z,93155.97
2023-03-05T08:53:11.912Z,93183.03
2023-03-05T08:54:09.843Z,93190.41
2023-03-05T08:55:06.638Z,93183.59
2023-03-05T08:56:03.813Z,93179.97
2023-03-05T08:57:00.664Z,93183.47
2023-03-05T08:57:57.381Z,93180.97
2023-03-05T08:58:54.556Z,93175.47
2023-03-05T08:59:51.138Z,93183.84
2023-03-05T09:00:47.737Z,93178.47
2023-03-05T09:01:44.391Z,93177.72
2023-03-05T09:02:41.136Z,93176.63
2023-03-05T09:03:38.129Z,93174.13
2023-03-05T09:04:34.673Z,93174.13
2023-03-05T09:05:31.261Z,93173.72
2023-03-05T09:06:28.218Z,93169.69
2023-03-05T09:07:24.861Z,93172.00
2023-03-05T09:08:21.745Z,93179.84
2023-03-05T09:09:21.355Z,93169.31
2023-03-05T09:10:18.548Z,93167.88
2023-03-05T09:11:15.238Z,93175.09
2023-03-05T09:12:13.402Z,93144.31
2023-03-05T09:13:10.984Z,93174.53
2023-03-05T09:14:07.763Z,93166.94
2023-03-05T09:15:08.202Z,93122.31
2023-03-05T09:16:08.225Z,93169.25
2023-03-05T09:17:04.906Z,93158.56
2023-03-05T09:18:01.715Z,93167.81
2023-03-05T09:18:59.834Z,93161.47
2023-03-05T09:19:56.441Z,93166.50
2023-03-05T09:20:53.845Z,93164.59
2023-03-05T09:21:50.685Z,93159.06
2023-03-05T09:22:47.296Z,93163.91
2023-03-05T09:23:45.042Z,93151.41
2023-03-05T09:24:43.472Z,93126.56
2023-03-05T09:25:41.295Z,93169.16
2023-03-05T09:26:38.022Z,93133.41
2023-03-05T09:27:38.868Z,93163.25
2023-03-05T09:28:35.815Z,93165.56
2023-03-05T09:29:32.533Z,93173.44
2023-03-05T09:30:29.135Z,93164.75
2023-03-05T09:31:25.771Z,93158.28
2023-03-05T09:32:22.381Z,93168.81
2023-03-05T09:33:19.082Z,93156.31
2023-03-05T09:34:15.680Z,93159.38
2023-03-05T09:35:12.444Z,93160.66
2023-03-05T09:36:21.602Z,93159.75
2023-03-05T09:37:18.186Z,93154.25
2023-03-05T09:38:14.993Z,93150.47
2023-03-05T09:39:11.656Z,93162.03
2023-03-05T09:40:12.124Z,93103.22
2023-03-05T09:41:43.009Z,93143.81
2023-03-05T09:42:52.112Z,93142.44
2023-03-05T09:44:26.295Z,93143.53
2023-03-05T09:45:26.983Z,93147.34
2023-03-05T09:46:36.026Z,93083.91
2023-03-05T09:48:00.122Z,93136.66
2023-03-05T09:49:22.513Z,93134.03
2023-03-05T09:50:40.520Z,93134.72
2023-03-05T09:51:41.594Z,93134.38
2023-03-05T09:52:50.363Z,93135.03
2023-03-05T09:53:52.286Z,93136.91
2023-03-05T09:54:54.422Z,93133.09
2023-03-05T09:55:56.855Z,93129.97
2023-03-05T09:56:58.273Z,93123.09
2023-03-05T09:58:02.968Z,93128.94
2023-03-05T09:59:17.776Z,93127.84
2023-03-05T10:00:33.225Z,93122.44
2023-03-05T10:01:42.418Z,93128.84
2023-03-05T10:02:50.138Z,93127.84
2023-03-05T10:04:11.722Z,93124.56
2023-03-05T10:05:08.333Z,93127.34
2023-03-05T10:06:29.117Z,93126.38
2023-03-05T10:07:31.781Z,93102.28
2023-03-05T10:08:52.593Z,93124.97
2023-03-05T10:10:00.498Z,93121.47
2023-03-05T10:10:59.940Z,93113.81
2023-03-05T10:11:59.346Z,93117.97
2023-03-05T10:13:00.047Z,93116.41
2023-03-05T10:13:56.874Z,93077.91
2023-03-05T10:14:54.658Z,93120.56
2023-03-05T10:16:22.695Z,93120.63
2023-03-05T10:17:31.487Z,93118.94
2023-03-05T10:18:46.456Z,93122.13
2023-03-05T10:19:42.969Z,93113.09
2023-03-05T10:21:01.493Z,93109.16
2023-03-05T10:22:17.941Z,93111.19
2023-03-05T10:23:24.680Z,93108.34
2023-03-05T10:24:38.310Z,93108.00
2023-03-05T10:25:34.872Z,93110.84
2023-03-05T10:26:59.993Z,93100.91
2023-03-05T10:28:21.602Z,93059.25
2023-03-05T10:29:37.064Z,93092.91
2023-03-05T10:30:33.656Z,93091.88
2023-03-05T10:31:58.108Z,93091.53
2023-03-05T10:33:03.807Z,93081.84
2023-03-05T10:34:00.293Z,93077.28
2023-03-05T10:35:28.942Z,93081.78
2023-03-05T10:36:31.319Z,93080.16
2023-03-05T10:37:35.419Z,93085.34
2023-03-05T10:39:01.083Z,93081.22
2023-03-05T10:40:36.003Z,93073.84
2023-03-05T10:42:09.519Z,93073.97
2023-03-05T10:43:24.466Z,93076.59
2023-03-05T10:44:23.928Z,93074.72
2023-03-05T10:45:27.669Z,93078.59
2023-03-05T10:46:36.391Z,93073.00
2023-03-05T10:47:48.233Z,93072.69
2023-03-05T10:49:21.948Z,93076.50
2023-03-05T10:50:22.018Z,93069.69
2023-03-05T10:51:24.218Z,93020.59
2023-03-05T10:52:35.040Z,93069.22
2023-03-05T10:53:43.637Z,93065.75
2023-03-05T10:54:42.882Z,93064.22
2023-03-05T10:55:40.174Z,93058.09
2023-03-05T10:56:37.159Z,93062.22
2023-03-05T10:57:33.729Z,93064.00
2023-03-05T10:58:30.622Z,93065.06
2023-03-05T10:59:28.104Z,93039.97
2023-03-05T11:00:27.824Z,92969.00
2023-03-05T11:01:28.214Z,93050.81
2023-03-05T11:02:25.129Z,93061.94
2023-03-05T11:03:21.836Z,93061.31
2023-03-05T11:04:28.951Z,93059.69
2023-03-05T11:05:48.104Z,93057.06
2023-03-05T11:06:48.742Z,93018.66
2023-03-05T11:07:45.386Z,93050.28
2023-03-05T11:08:42.428Z,93054.81
2023-03-05T11:09:39.204Z,93039.97
2023-03-05T11:10:35.761Z,93048.31
2023-03-05T11:11:33.408Z,93046.22
2023-03-05T11:12:39.816Z,93050.81
2023-03-05T11:13:38.861Z,93043.53
2023-03-05T11:14:38.762Z,93016.88
2023-03-05T11:15:35.449Z,93042.91
2023-03-05T11:16:46.980Z,93044.66
2023-03-05T11:18:04.242Z,93038.88
2023-03-05T11:19:20.833Z,93032.47
2023-03-05T11:20:20.223Z,93032.19
2023-03-05T11:21:27.557Z,93037.41
2023-03-05T11:22:25.453Z,92975.72
2023-03-05T11:23:24.094Z,93033.88
2023-03-05T11:24:20.747Z,93035.06
2023-03-05T11:25:21.378Z,93026.66
2023-03-05T11:26:24.542Z,93029.44
2023-03-05T11:27:50.632Z,93028.16
2023-03-05T11:28:53.939Z,93020.09
2023-03-05T11:29:50.997Z,93019.88
2023-03-05T11:31:03.285Z,93021.47
2023-03-05T11:32:35.456Z,93019.88
2023-03-05T11:33:32.153Z,92994.16